Time;durP1;ratioP1;P1;durP2;ratioP2;P2;SDS_P1;SDS_P2;PMS_P1;PMS_P2;Temp;Humidity;BMP_temperature;BMP_pressure;BME280_temperature;BME280_humidity;BME280_pressure;Samples;Min_cycle;Max_cycle;Signal;HPM_P1;HPM_P2
2023/04/08 00:00:05;;;;;;;38.20;17.23;;;9.80;99.90;;;;;;5095455;28;20028;-71
2023/04/08 00:02:30;;;;;;;45.95;19.90;;;9.70;99.90;;;;;;5095459;28;20027;-72
2023/04/08 00:04:56;;;;;;;46.30;20.35;;;9.70;99.90;;;;;;5095096;28;20080;-71
2023/04/08 00:07:21;;;;;;;45.40;22.65;;;9.70;99.90;;;;;;5095099;28;20020;-71
2023/04/08 00:09:47;;;;;;;46.80;19.98;;;9.60;99.90;;;;;;5095362;28;20016;-71
2023/04/08 00:12:13;;;;;;;43.60;21.10;;;9.60;99.90;;;;;;5095232;28;20407;-71
2023/04/08 00:14:40;;;;;;;47.55;24.38;;;9.50;99.90;;;;;;5095166;28;20503;-71
2023/04/08 00:17:06;;;;;;;51.35;24.67;;;9.50;99.90;;;;;;5095083;28;20047;-72
2023/04/08 00:19:32;;;;;;;55.08;26.52;;;9.40;99.90;;;;;;5095226;28;20059;-72
2023/04/08 00:21:58;;;;;;;49.45;21.60;;;9.40;99.90;;;;;;5094784;28;20028;-71
2023/04/08 00:24:24;;;;;;;47.40;20.58;;;9.30;99.90;;;;;;5095036;28;20024;-71
2023/04/08 00:26:50;;;;;;;47.22;22.08;;;9.30;99.90;;;;;;5095370;28;20067;-70
2023/04/08 00:29:16;;;;;;;46.65;20.42;;;9.20;99.90;;;;;;5096022;28;20024;-72
2023/04/08 00:31:41;;;;;;;52.58;21.13;;;9.10;99.90;;;;;;5095155;28;20028;-71
2023/04/08 00:34:07;;;;;;;48.70;21.55;;;9.10;99.90;;;;;;5096036;28;20031;-72
2023/04/08 00:36:33;;;;;;;46.35;20.02;;;9.00;99.90;;;;;;5095952;28;20043;-71
2023/04/08 00:38:59;;;;;;;51.00;21.35;;;9.00;99.90;;;;;;5095587;28;20533;-71
2023/04/08 00:41:24;;;;;;;53.83;21.40;;;8.90;99.90;;;;;;5093727;28;20109;-71
2023/04/08 00:43:51;;;;;;;53.03;20.83;;;8.90;99.90;;;;;;5095888;28;20028;-71
2023/04/08 00:46:17;;;;;;;52.80;21.95;;;8.80;99.90;;;;;;5095817;28;20031;-71
2023/04/08 00:48:42;;;;;;;47.65;20.77;;;8.80;99.90;;;;;;5095942;28;20028;-71
2023/04/08 00:51:08;;;;;;;50.03;21.30;;;8.80;99.90;;;;;;5095681;28;20016;-71
2023/04/08 00:53:34;;;;;;;49.08;20.05;;;8.70;99.90;;;;;;5095755;28;20468;-71
2023/04/08 00:56:00;;;;;;;51.00;20.45;;;8.70;99.90;;;;;;5095658;28;20059;-72
2023/04/08 00:58:27;;;;;;;51.60;20.58;;;8.60;99.90;;;;;;5095940;28;20522;-72
2023/04/08 01:01:02;;;;;;;50.55;21.17;;;8.60;99.90;;;;;;5095579;28;20024;-70
2023/04/08 01:03:42;;;;;;;54.38;21.63;;;8.50;99.90;;;;;;5095622;28;20112;-70
2023/04/08 01:06:25;;;;;;;51.10;21.45;;;8.50;99.90;;;;;;5095737;28;20042;-71
2023/04/08 01:08:52;;;;;;;49.40;21.88;;;8.40;99.90;;;;;;5095662;28;20024;-71
2023/04/08 01:11:19;;;;;;;55.53;22.30;;;8.40;99.90;;;;;;5095314;28;20051;-71
2023/04/08 01:13:47;;;;;;;53.00;21.80;;;8.30;99.90;;;;;;5094499;28;20443;-71
2023/04/08 01:16:15;;;;;;;54.97;21.17;;;8.30;99.90;;;;;;5095307;28;20047;-71
2023/04/08 01:18:43;;;;;;;55.63;22.17;;;8.20;99.90;;;;;;5095478;28;20067;-71
2023/04/08 01:21:11;;;;;;;59.03;23.42;;;8.20;99.90;;;;;;5095437;28;20428;-71
2023/04/08 01:24:01;;;;;;;58.67;21.95;;;8.20;99.90;;;;;;5095133;28;20028;-71
2023/04/08 01:26:27;;;;;;;61.47;22.63;;;8.20;99.90;;;;;;5094943;28;20051;-72
2023/04/08 01:28:57;;;;;;;59.40;23.33;;;8.10;99.90;;;;;;5095177;28;20099;-71
2023/04/08 01:31:24;;;;;;;63.55;22.90;;;8.10;99.90;;;;;;5095048;28;20469;-71
2023/04/08 01:33:51;;;;;;;58.17;22.55;;;8.00;99.90;;;;;;5094830;28;20024;-71
2023/04/08 01:36:17;;;;;;;57.40;23.38;;;8.00;99.90;;;;;;5095240;28;20040;-71
2023/04/08 01:38:43;;;;;;;61.35;24.08;;;8.00;99.90;;;;;;5095010;28;20035;-71
2023/04/08 01:41:10;;;;;;;64.80;22.95;;;8.00;99.90;;;;;;5094642;28;20074;-71
2023/04/08 01:43:42;;;;;;;59.15;23.33;;;7.90;99.90;;;;;;5094595;28;20020;-72
2023/04/08 01:46:10;;;;;;;60.53;22.30;;;7.90;99.90;;;;;;5094307;28;20059;-71
2023/04/08 01:48:37;;;;;;;60.47;22.75;;;7.90;99.90;;;;;;5094791;28;20073;-71
2023/04/08 01:51:04;;;;;;;66.53;22.67;;;7.90;99.90;;;;;;5093999;28;20031;-71
2023/04/08 01:53:30;;;;;;;60.03;21.98;;;7.90;99.90;;;;;;5088182;28;20101;-71
2023/04/08 01:56:00;;;;;;;60.13;23.60;;;7.80;99.90;;;;;;5074008;28;20138;-71
2023/04/08 01:58:31;;;;;;;63.30;22.77;;;7.80;99.90;;;;;;5074159;28;20074;-71
2023/04/08 02:00:58;;;;;;;61.50;23.30;;;7.80;99.90;;;;;;5074407;28;20043;-71
2023/04/08 02:03:26;;;;;;;57.90;22.15;;;7.80;99.90;;;;;;5074250;28;20043;-71
2023/04/08 02:05:51;;;;;;;62.00;21.58;;;7.80;99.90;;;;;;5074129;28;20032;-71
2023/04/08 02:08:17;;;;;;;68.38;23.65;;;7.80;99.90;;;;;;5073621;28;20445;-71
2023/04/08 02:10:42;;;;;;;65.03;24.27;;;7.70;99.90;;;;;;5074095;28;20040;-71
2023/04/08 02:13:08;;;;;;;65.97;23.45;;;7.70;99.90;;;;;;5073778;28;20035;-71
2023/04/08 02:15:37;;;;;;;67.22;23.83;;;7.70;99.90;;;;;;5074007;28;20050;-72
2023/04/08 02:18:14;;;;;;;68.47;23.80;;;7.70;99.90;;;;;;5073821;28;20031;-71
2023/04/08 02:20:45;;;;;;;66.70;22.98;;;7.70;99.90;;;;;;5073583;28;20036;-71
2023/04/08 02:23:23;;;;;;;72.60;24.70;;;7.60;99.90;;;;;;5073764;28;20457;-71
2023/04/08 02:25:51;;;;;;;65.60;24.05;;;7.60;99.90;;;;;;5073525;28;20029;-72
2023/04/08 02:28:18;;;;;;;70.13;24.15;;;7.60;99.90;;;;;;5073805;28;20047;-71
2023/04/08 02:30:51;;;;;;;92.07;24.13;;;7.60;99.90;;;;;;5073459;28;20035;-71
2023/04/08 02:33:19;;;;;;;173.57;24.25;;;7.60;99.90;;;;;;5073454;28;20017;-71
2023/04/08 02:35:47;;;;;;;148.40;22.33;;;7.60;99.90;;;;;;5073534;28;20040;-71
2023/04/08 02:38:13;;;;;;;183.52;23.98;;;7.60;99.90;;;;;;5073468;28;20033;-72
2023/04/08 02:40:38;;;;;;;150.05;22.52;;;7.60;99.90;;;;;;5073561;28;20025;-71
2023/04/08 02:43:04;;;;;;;147.52;24.00;;;7.60;99.90;;;;;;5073444;28;20016;-71
2023/04/08 02:45:34;;;;;;;175.82;25.50;;;7.60;99.90;;;;;;5073681;28;20031;-71
2023/04/08 02:48:00;;;;;;;165.68;23.13;;;7.60;99.90;;;;;;5073432;28;20033;-71
2023/04/08 02:50:26;;;;;;;86.25;19.05;;;7.60;99.90;;;;;;5073415;28;20035;-71
2023/04/08 02:52:52;;;;;;;105.32;20.35;;;7.60;99.90;;;;;;5074015;28;20021;-71
2023/04/08 02:55:17;;;;;;;91.95;18.65;;;7.50;99.90;;;;;;5093769;28;20035;-71
2023/04/08 02:57:43;;;;;;;101.85;19.70;;;7.50;99.90;;;;;;5093431;28;20039;-71
2023/04/08 03:00:09;;;;;;;115.13;19.75;;;7.40;99.90;;;;;;5092973;28;20026;-71
2023/04/08 03:02:35;;;;;;;132.60;21.02;;;7.40;99.90;;;;;;5093001;28;20043;-71
2023/04/08 03:05:00;;;;;;;108.22;17.95;;;7.40;99.90;;;;;;5093423;28;20449;-71
2023/04/08 03:07:26;;;;;;;89.50;18.77;;;7.40;99.90;;;;;;5093644;28;20427;-71
2023/04/08 03:09:53;;;;;;;80.43;16.30;;;7.30;99.90;;;;;;5093616;28;20020;-71
2023/04/08 03:12:20;;;;;;;110.80;17.83;;;7.30;99.90;;;;;;5093170;28;20020;-71
2023/04/08 03:14:45;;;;;;;111.82;18.17;;;7.20;99.90;;;;;;5093228;28;20027;-72
2023/04/08 03:17:11;;;;;;;92.88;17.67;;;7.20;99.90;;;;;;5093688;28;20020;-71
2023/04/08 03:19:36;;;;;;;68.28;17.40;;;7.20;99.90;;;;;;5093172;28;20028;-71
2023/04/08 03:22:02;;;;;;;69.65;16.08;;;7.10;99.90;;;;;;5093187;28;20071;-71
2023/04/08 03:24:27;;;;;;;35.78;14.93;;;7.10;99.90;;;;;;5093137;28;20055;-71
2023/04/08 03:26:53;;;;;;;33.30;15.55;;;7.00;99.90;;;;;;5092892;28;20048;-71
2023/04/08 03:29:18;;;;;;;32.90;14.77;;;7.00;99.90;;;;;;5093201;28;20422;-72
2023/04/08 03:31:44;;;;;;;34.38;16.33;;;6.90;99.90;;;;;;5092683;28;20444;-71
2023/04/08 03:34:09;;;;;;;32.40;14.85;;;6.80;99.90;;;;;;5093090;28;20021;-71
2023/04/08 03:36:35;;;;;;;34.10;15.95;;;6.80;99.90;;;;;;5092813;28;20047;-71
2023/04/08 03:39:02;;;;;;;34.38;15.82;;;6.70;99.90;;;;;;5093051;28;20103;-71
2023/04/08 03:41:29;;;;;;;36.00;17.15;;;6.70;99.90;;;;;;5091593;28;20383;-71
2023/04/08 03:43:55;;;;;;;35.13;16.60;;;6.60;99.90;;;;;;5092851;28;20702;-71
2023/04/08 03:46:21;;;;;;;33.88;16.67;;;6.60;99.90;;;;;;5092813;28;20105;-71
2023/04/08 03:48:47;;;;;;;38.45;17.52;;;6.50;99.90;;;;;;5092915;28;20460;-71
2023/04/08 03:51:12;;;;;;;37.72;18.00;;;6.50;99.90;;;;;;5092851;28;20028;-71
2023/04/08 03:53:38;;;;;;;36.30;17.80;;;6.50;99.90;;;;;;5091870;28;20024;-71
2023/04/08 03:56:04;;;;;;;35.17;17.95;;;6.40;99.90;;;;;;5092960;28;20055;-71
2023/04/08 03:58:30;;;;;;;40.00;19.27;;;6.40;99.90;;;;;;5092161;28;20016;-72
2023/04/08 04:00:56;;;;;;;40.30;18.33;;;6.40;99.90;;;;;;5092772;28;20024;-72
2023/04/08 04:03:22;;;;;;;34.17;17.88;;;6.40;99.90;;;;;;5093244;28;20379;-71
2023/04/08 04:05:48;;;;;;;36.83;19.48;;;6.30;99.90;;;;;;5092862;28;20077;-71
2023/04/08 04:08:13;;;;;;;38.08;19.13;;;6.30;99.90;;;;;;5092971;28;20036;-71
2023/04/08 04:10:39;;;;;;;39.95;19.35;;;6.30;99.90;;;;;;5092902;28;20089;-71
2023/04/08 04:13:04;;;;;;;42.95;20.30;;;6.20;99.90;;;;;;5092932;28;20479;-71
2023/04/08 04:15:30;;;;;;;38.60;19.67;;;6.20;99.90;;;;;;5095765;28;20075;-71
2023/04/08 04:17:56;;;;;;;40.15;20.10;;;6.20;99.90;;;;;;5096858;28;20024;-71
2023/04/08 04:20:21;;;;;;;48.30;22.67;;;6.20;99.90;;;;;;5096634;28;20025;-71
2023/04/08 04:22:47;;;;;;;39.00;19.90;;;6.20;99.90;;;;;;5096596;28;20549;-71
2023/04/08 04:25:12;;;;;;;40.30;22.02;;;6.10;99.90;;;;;;5096761;28;20039;-71
2023/04/08 04:27:38;;;;;;;42.20;20.83;;;6.10;99.90;;;;;;5096648;28;20053;-71
2023/04/08 04:30:04;;;;;;;42.10;21.13;;;6.10;99.90;;;;;;5096284;28;20107;-71
2023/04/08 04:32:30;;;;;;;38.70;21.05;;;6.00;99.90;;;;;;5096532;28;20056;-71
2023/04/08 04:34:55;;;;;;;35.28;18.58;;;6.00;99.90;;;;;;5096340;28;20136;-71
2023/04/08 04:37:21;;;;;;;39.13;19.95;;;5.90;99.90;;;;;;5096370;28;20034;-71
2023/04/08 04:39:47;;;;;;;42.15;21.52;;;5.90;99.90;;;;;;5096356;28;20024;-71
2023/04/08 04:42:12;;;;;;;41.75;20.52;;;5.90;99.90;;;;;;5096418;28;20507;-71
2023/04/08 04:44:38;;;;;;;39.08;20.52;;;5.90;99.90;;;;;;5096008;28;20612;-71
2023/04/08 04:47:03;;;;;;;42.22;20.40;;;5.90;99.90;;;;;;5095810;28;20050;-71
2023/04/08 04:49:29;;;;;;;37.45;19.83;;;5.80;99.90;;;;;;5096045;28;20028;-70
2023/04/08 04:51:54;;;;;;;42.65;22.30;;;5.80;99.90;;;;;;5095747;28;20070;-71
2023/04/08 04:54:20;;;;;;;39.72;19.75;;;5.80;99.90;;;;;;5082559;28;20029;-71
2023/04/08 04:56:45;;;;;;;39.00;21.23;;;5.80;99.90;;;;;;5075377;28;20090;-71
2023/04/08 04:59:11;;;;;;;40.47;22.02;;;5.80;99.90;;;;;;5075315;28;20082;-71
2023/04/08 05:01:39;;;;;;;45.92;22.38;;;5.70;99.90;;;;;;5075718;28;20033;-71
2023/04/08 05:04:05;;;;;;;39.60;21.23;;;5.70;99.90;;;;;;5075872;28;20028;-71
2023/04/08 05:06:31;;;;;;;42.30;21.42;;;5.70;99.90;;;;;;5075075;28;20029;-71
2023/04/08 05:08:56;;;;;;;39.17;22.73;;;5.70;99.90;;;;;;5075364;28;20036;-71
2023/04/08 05:11:22;;;;;;;41.28;22.88;;;5.70;99.90;;;;;;5075346;28;20028;-70
2023/04/08 05:13:47;;;;;;;45.88;23.92;;;5.70;99.90;;;;;;5073929;28;20035;-70
2023/04/08 05:16:14;;;;;;;40.17;22.67;;;5.70;99.90;;;;;;5075421;28;20043;-71
2023/04/08 05:18:39;;;;;;;40.05;23.58;;;5.70;99.90;;;;;;5074901;28;20036;-70
2023/04/08 05:21:05;;;;;;;39.97;22.85;;;5.70;99.90;;;;;;5074776;28;20376;-71
2023/04/08 05:23:30;;;;;;;38.63;21.85;;;5.70;99.90;;;;;;5075126;28;20032;-71
2023/04/08 05:25:56;;;;;;;41.58;22.48;;;5.70;99.90;;;;;;5074832;28;20029;-71
2023/04/08 05:28:22;;;;;;;40.35;22.25;;;5.70;99.90;;;;;;5074802;28;20020;-70
2023/04/08 05:30:49;;;;;;;39.00;22.10;;;5.70;99.90;;;;;;5075286;28;20025;-70
2023/04/08 05:33:15;;;;;;;39.08;22.35;;;5.70;99.90;;;;;;5075279;28;20104;-70
2023/04/08 05:35:41;;;;;;;40.08;21.92;;;5.80;99.90;;;;;;5074952;28;20123;-70
2023/04/08 05:38:06;;;;;;;39.50;22.08;;;5.80;99.90;;;;;;5074820;28;20031;-70
2023/04/08 05:40:32;;;;;;;39.75;23.23;;;5.80;99.90;;;;;;5074876;28;20024;-70
2023/04/08 05:42:57;;;;;;;36.70;21.70;;;5.80;99.90;;;;;;5074562;28;20469;-70
2023/04/08 05:45:23;;;;;;;36.20;20.92;;;5.90;99.90;;;;;;5074854;28;20219;-70
2023/04/08 05:47:48;;;;;;;36.50;21.13;;;5.90;99.90;;;;;;5074422;28;20104;-71
2023/04/08 05:50:14;;;;;;;35.90;21.67;;;6.00;99.90;;;;;;5074899;28;20024;-70
2023/04/08 05:52:45;;;;;;;37.13;20.90;;;6.00;99.90;;;;;;5074739;28;20028;-70
2023/04/08 05:55:12;;;;;;;37.85;20.05;;;6.00;99.90;;;;;;5074607;28;20035;-70
2023/04/08 05:57:38;;;;;;;37.20;20.98;;;6.10;99.90;;;;;;5073165;28;20028;-70
2023/04/08 06:00:05;;;;;;;34.00;19.42;;;6.10;99.90;;;;;;5074665;28;20038;-70
2023/04/08 06:02:31;;;;;;;35.33;20.45;;;6.20;99.90;;;;;;5084939;28;20024;-70
2023/04/08 06:04:56;;;;;;;35.42;20.38;;;6.20;99.90;;;;;;5094325;28;20039;-71
2023/04/08 06:07:22;;;;;;;35.88;20.50;;;6.30;99.90;;;;;;5094127;28;20032;-71
2023/04/08 06:09:48;;;;;;;33.53;18.98;;;6.40;99.90;;;;;;5094413;28;20093;-70
2023/04/08 06:12:13;;;;;;;32.25;18.95;;;6.40;99.90;;;;;;5093609;28;20024;-71
2023/04/08 06:14:39;;;;;;;31.35;19.23;;;6.50;99.90;;;;;;5094672;28;20136;-71
2023/04/08 06:17:05;;;;;;;33.17;19.23;;;6.60;99.90;;;;;;5094291;28;20524;-71
2023/04/08 06:19:30;;;;;;;34.67;19.48;;;6.60;99.90;;;;;;5094456;28;20024;-70
2023/04/08 06:21:57;;;;;;;33.00;17.88;;;6.70;99.90;;;;;;5094590;28;20422;-70
2023/04/08 06:24:25;;;;;;;29.00;17.88;;;6.80;99.90;;;;;;5094026;28;20028;-70
2023/04/08 06:26:51;;;;;;;29.30;17.85;;;6.80;99.90;;;;;;5094335;28;20052;-71
2023/04/08 06:29:17;;;;;;;30.05;17.52;;;6.90;99.90;;;;;;5094326;28;20028;-70
2023/04/08 06:31:43;;;;;;;29.05;17.63;;;7.00;99.90;;;;;;5094284;28;20069;-70
2023/04/08 06:34:08;;;;;;;28.92;16.98;;;7.10;99.90;;;;;;5094342;28;20496;-71
2023/04/08 06:36:34;;;;;;;29.15;15.65;;;7.20;99.90;;;;;;5093283;28;20503;-71
2023/04/08 06:38:59;;;;;;;28.77;16.80;;;7.20;99.90;;;;;;5093388;28;20028;-71
2023/04/08 06:41:25;;;;;;;26.38;16.50;;;7.40;99.90;;;;;;5093930;28;20051;-71
2023/04/08 06:43:50;;;;;;;27.67;16.60;;;7.40;99.90;;;;;;5094343;28;20024;-71
2023/04/08 06:46:16;;;;;;;28.70;15.98;;;7.50;99.90;;;;;;5093469;28;20062;-70
2023/04/08 06:48:42;;;;;;;27.35;16.85;;;7.60;99.90;;;;;;5093656;28;20468;-71
2023/04/08 06:51:07;;;;;;;26.88;15.52;;;7.70;99.90;;;;;;5092555;28;20039;-71
2023/04/08 06:53:33;;;;;;;27.02;15.80;;;7.90;99.90;;;;;;5086753;28;20073;-71
2023/04/08 06:55:59;;;;;;;26.33;14.52;;;8.00;99.90;;;;;;5073529;28;20040;-71
2023/04/08 06:58:25;;;;;;;25.63;15.32;;;8.10;99.90;;;;;;5073619;28;20016;-71
2023/04/08 07:00:52;;;;;;;23.40;12.95;;;8.20;99.90;;;;;;5074046;28;20389;-71
2023/04/08 07:03:17;;;;;;;24.23;14.45;;;8.40;99.90;;;;;;5076700;28;20426;-71
2023/04/08 07:05:43;;;;;;;23.45;13.68;;;8.50;99.90;;;;;;5083655;28;20119;-70
2023/04/08 07:08:09;;;;;;;22.00;13.00;;;8.60;99.90;;;;;;5085128;28;20069;-70
2023/04/08 07:10:35;;;;;;;24.30;13.55;;;8.80;99.90;;;;;;5093888;28;20089;-70
2023/04/08 07:13:00;;;;;;;23.98;13.45;;;8.90;99.90;;;;;;5093603;28;20020;-70
2023/04/08 07:15:26;;;;;;;22.55;12.75;;;9.00;99.90;;;;;;5094046;28;20032;-70
2023/04/08 07:17:51;;;;;;;23.20;12.88;;;9.20;99.90;;;;;;5093649;28;20024;-70
2023/04/08 07:20:17;;;;;;;21.40;11.63;;;9.30;99.90;;;;;;5093692;28;20028;-70
2023/04/08 07:22:43;;;;;;;20.75;10.48;;;9.40;99.90;;;;;;5093052;28;20101;-71
2023/04/08 07:25:08;;;;;;;20.67;11.85;;;9.60;99.90;;;;;;5093101;28;20031;-70
2023/04/08 07:27:34;;;;;;;21.52;11.25;;;9.90;99.90;;;;;;5093300;28;20095;-70
2023/04/08 07:30:00;;;;;;;21.30;11.63;;;10.20;99.90;;;;;;5093536;28;20043;-70
2023/04/08 07:32:26;;;;;;;19.63;10.80;;;10.70;99.90;;;;;;5093209;28;20388;-71
2023/04/08 07:34:51;;;;;;;20.25;11.05;;;11.20;99.90;;;;;;5093341;28;20154;-71
2023/04/08 07:37:17;;;;;;;20.52;11.02;;;11.70;99.90;;;;;;5093073;28;20161;-71
2023/04/08 07:39:43;;;;;;;17.17;10.13;;;12.30;99.90;;;;;;5093156;28;20107;-71
2023/04/08 07:42:08;;;;;;;22.20;10.50;;;13.00;99.90;;;;;;5092980;28;20386;-71
2023/04/08 07:44:34;;;;;;;17.52;9.18;;;13.80;99.90;;;;;;5092867;28;20032;-70
2023/04/08 07:47:00;;;;;;;16.75;9.30;;;14.60;99.90;;;;;;5093027;28;20058;-70
2023/04/08 07:49:25;;;;;;;13.45;7.72;;;15.50;99.90;;;;;;5094632;28;20372;-71
2023/04/08 07:51:51;;;;;;;11.75;6.57;;;16.40;99.90;;;;;;5096974;28;20082;-71
2023/04/08 07:54:17;;;;;;;14.30;7.43;;;17.20;99.20;;;;;;5084388;28;20464;-70
2023/04/08 07:56:43;;;;;;;13.05;7.47;;;17.70;98.60;;;;;;5076716;28;20032;-71
2023/04/08 07:59:10;;;;;;;11.02;6.68;;;18.30;97.20;;;;;;5076751;28;20464;-70
2023/04/08 08:01:36;;;;;;;13.85;7.80;;;18.80;96.40;;;;;;5082118;28;20431;-70
2023/04/08 08:04:02;;;;;;;13.43;6.93;;;19.40;96.50;;;;;;5096909;28;20019;-71
2023/04/08 08:06:31;;;;;;;11.57;6.68;;;20.10;95.80;;;;;;5096758;28;20052;-71
2023/04/08 08:08:56;;;;;;;14.73;6.90;;;20.90;94.30;;;;;;5096848;28;20452;-71
2023/04/08 08:11:22;;;;;;;12.10;6.38;;;21.60;93.50;;;;;;5097066;28;20028;-71
2023/04/08 08:13:47;;;;;;;11.63;6.93;;;22.10;92.10;;;;;;5096888;28;20016;-71
2023/04/08 08:16:13;;;;;;;11.45;6.43;;;22.50;91.40;;;;;;5096549;28;20127;-71
2023/04/08 08:18:39;;;;;;;11.88;6.80;;;23.00;90.60;;;;;;5095993;28;20024;-71
2023/04/08 08:21:05;;;;;;;10.80;6.47;;;23.30;88.50;;;;;;5096366;28;20116;-71
2023/04/08 08:23:31;;;;;;;11.10;6.35;;;23.50;88.70;;;;;;5096272;28;20106;-71
2023/04/08 08:26:10;;;;;;;11.50;6.60;;;23.80;87.60;;;;;;5096248;28;20024;-71
2023/04/08 08:28:37;;;;;;;12.27;6.90;;;24.00;85.70;;;;;;5096631;28;20035;-71
2023/04/08 08:31:04;;;;;;;11.40;6.53;;;24.20;85.70;;;;;;5096470;28;20483;-71
2023/04/08 08:33:30;;;;;;;11.75;6.35;;;24.50;84.40;;;;;;5096600;28;20425;-71
2023/04/08 08:35:56;;;;;;;11.98;6.82;;;24.60;81.50;;;;;;5096124;28;20097;-71
2023/04/08 08:38:23;;;;;;;11.18;6.93;;;24.30;82.20;;;;;;5096484;28;20028;-71
2023/04/08 08:40:56;;;;;;;14.13;9.15;;;23.80;83.50;;;;;;5096187;28;20020;-71
2023/04/08 08:43:24;;;;;;;11.32;7.22;;;23.70;84.20;;;;;;5096286;28;20028;-71
2023/04/08 08:45:50;;;;;;;10.23;7.25;;;23.70;84.00;;;;;;5095467;28;20074;-71
2023/04/08 08:48:16;;;;;;;12.63;7.70;;;23.90;84.00;;;;;;5096119;28;20352;-71
2023/04/08 08:50:41;;;;;;;9.75;7.20;;;24.30;83.70;;;;;;5096295;28;20020;-71
2023/04/08 08:53:07;;;;;;;11.18;7.35;;;24.80;83.40;;;;;;5096205;28;20077;-71
2023/04/08 08:55:34;;;;;;;12.00;7.13;;;25.40;81.20;;;;;;5095823;28;20032;-71
2023/04/08 08:58:00;;;;;;;13.05;8.02;;;25.50;80.40;;;;;;5095912;28;20039;-71
2023/04/08 09:00:33;;;;;;;13.25;7.43;;;25.40;80.50;;;;;;5095349;28;20028;-71
2023/04/08 09:03:18;;;;;;;12.93;8.15;;;25.30;79.90;;;;;;5095929;28;20114;-71
2023/04/08 09:06:02;;;;;;;12.02;7.18;;;25.00;80.90;;;;;;5095886;28;20073;-71
2023/04/08 09:08:31;;;;;;;12.68;7.50;;;25.10;80.50;;;;;;5095576;28;20361;-71
2023/04/08 09:11:17;;;;;;;12.70;7.50;;;25.00;79.60;;;;;;5095856;28;20055;-71
2023/04/08 09:13:44;;;;;;;12.15;7.22;;;25.00;80.50;;;;;;5095677;28;20031;-71
2023/04/08 09:16:12;;;;;;;13.63;7.15;;;25.10;80.00;;;;;;5095701;28;20491;-71
2023/04/08 09:18:40;;;;;;;11.13;6.82;;;25.30;79.10;;;;;;5095587;28;20033;-71
2023/04/08 09:21:06;;;;;;;13.23;7.82;;;25.40;78.50;;;;;;5095454;28;20021;-71
2023/04/08 09:23:38;;;;;;;11.40;7.55;;;25.40;78.30;;;;;;5095351;28;20452;-71
2023/04/08 09:26:13;;;;;;;15.35;7.43;;;25.30;78.40;;;;;;5095418;28;20051;-71
2023/04/08 09:28:40;;;;;;;11.60;7.28;;;25.10;77.60;;;;;;5095319;28;20030;-71
2023/04/08 09:31:20;;;;;;;11.68;7.22;;;24.50;79.20;;;;;;5095357;28;20062;-71
2023/04/08 09:33:47;;;;;;;13.20;7.70;;;24.30;79.60;;;;;;5095048;28;20031;-71
2023/04/08 09:36:13;;;;;;;11.65;7.70;;;24.40;80.50;;;;;;5094823;28;20082;-71
2023/04/08 09:38:39;;;;;;;14.95;8.02;;;24.70;78.90;;;;;;5092810;28;20031;-71
2023/04/08 09:41:07;;;;;;;12.27;8.02;;;24.80;78.20;;;;;;5077085;28;20025;-71
2023/04/08 09:43:39;;;;;;;12.20;8.13;;;24.50;78.70;;;;;;5075004;28;20028;-71
2023/04/08 09:46:07;;;;;;;;;;;24.30;78.40;;;;;;5075296;28;20035;-71
2023/04/08 09:48:38;;;;;;;14.07;7.97;;;24.30;78.00;;;;;;5074682;28;19904;-71
2023/04/08 09:51:05;;;;;;;12.45;8.15;;;24.30;77.90;;;;;;5074809;28;20036;-71
2023/04/08 09:53:36;;;;;;;13.18;7.78;;;24.30;78.00;;;;;;5074468;28;20111;-71
2023/04/08 09:56:06;;;;;;;12.90;7.63;;;24.50;77.80;;;;;;5074578;28;20044;-71
2023/04/08 09:58:38;;;;;;;12.18;8.45;;;24.80;76.90;;;;;;5074959;28;20032;-71
2023/04/08 10:01:05;;;;;;;12.30;8.07;;;25.10;76.40;;;;;;5074225;28;20020;-71
2023/04/08 10:03:37;;;;;;;15.50;9.13;;;25.40;75.90;;;;;;5074276;28;20025;-71
2023/04/08 10:06:03;;;;;;;12.23;8.38;;;25.80;76.70;;;;;;5074104;28;20583;-71
2023/04/08 10:08:31;;;;;;;13.98;8.18;;;26.20;74.70;;;;;;5074137;28;20467;-71
2023/04/08 10:10:57;;;;;;;15.88;9.00;;;26.30;75.80;;;;;;5074238;28;20134;-71
2023/04/08 10:13:24;;;;;;;12.07;8.77;;;26.50;74.30;;;;;;5073570;28;20025;-71
2023/04/08 10:15:49;;;;;;;14.30;8.80;;;26.50;73.60;;;;;;5073997;28;20036;-71
2023/04/08 10:18:18;;;;;;;12.95;8.20;;;26.60;73.20;;;;;;5073687;28;20021;-71
2023/04/08 10:20:45;;;;;;;13.35;8.73;;;26.70;72.70;;;;;;5074205;28;20060;-70
2023/04/08 10:23:30;;;;;;;13.52;8.98;;;27.00;73.00;;;;;;5074017;28;20032;-70
2023/04/08 10:25:56;;;;;;;12.52;8.38;;;27.20;73.20;;;;;;5073350;28;20033;-70
2023/04/08 10:28:24;;;;;;;13.43;8.30;;;27.30;72.20;;;;;;5073777;28;20354;-70
2023/04/08 10:30:51;;;;;;;12.13;8.48;;;27.20;71.70;;;;;;5074083;28;20024;-70
2023/04/08 10:33:28;;;;;;;13.43;8.23;;;26.80;72.00;;;;;;5073714;28;20387;-70
2023/04/08 10:36:10;;;;;;;11.88;8.30;;;26.80;72.10;;;;;;5073785;28;20391;-70
2023/04/08 10:38:36;;;;;;;13.93;8.95;;;26.80;71.50;;;;;;5073848;28;20510;-70
2023/04/08 10:41:01;;;;;;;13.75;8.75;;;26.80;70.60;;;;;;5073933;28;20040;-70
2023/04/08 10:43:35;;;;;;;11.50;8.23;;;26.90;70.50;;;;;;5073485;28;20408;-70
2023/04/08 10:46:01;;;;;;;15.68;8.40;;;27.10;71.20;;;;;;5073696;28;20354;-70
2023/04/08 10:48:30;;;;;;;14.35;7.95;;;27.40;70.50;;;;;;5073668;28;20035;-70
2023/04/08 10:51:02;;;;;;;14.48;8.65;;;27.70;70.00;;;;;;5073328;28;20085;-70
2023/04/08 10:53:35;;;;;;;14.57;8.30;;;28.00;69.40;;;;;;5073649;28;20024;-70
2023/04/08 10:56:09;;;;;;;13.65;8.48;;;28.10;67.70;;;;;;5073281;28;20040;-70
2023/04/08 10:58:35;;;;;;;14.00;8.35;;;28.00;67.30;;;;;;5073436;28;20036;-70
2023/04/08 11:01:06;;;;;;;11.32;7.40;;;27.90;67.50;;;;;;5073378;28;20103;-70
2023/04/08 11:03:35;;;;;;;13.18;8.23;;;27.70;64.90;;;;;;5073084;28;20059;-70
2023/04/08 11:06:01;;;;;;;13.57;7.85;;;27.50;66.60;;;;;;5073352;28;20079;-70
2023/04/08 11:08:31;;;;;;;14.88;8.05;;;27.60;65.80;;;;;;5073267;28;20484;-70
2023/04/08 11:11:00;;;;;;;11.20;7.57;;;27.80;65.70;;;;;;5073507;28;20075;-70
2023/04/08 11:13:26;;;;;;;13.93;8.43;;;27.70;65.80;;;;;;5073255;28;20031;-70
2023/04/08 11:15:52;;;;;;;12.23;7.47;;;27.70;66.10;;;;;;5073158;28;20029;-70
2023/04/08 11:18:18;;;;;;;11.52;8.15;;;27.50;63.70;;;;;;5072957;28;20369;-70
2023/04/08 11:20:44;;;;;;;12.55;7.90;;;27.30;64.80;;;;;;5073174;28;20033;-70
2023/04/08 11:23:16;;;;;;;13.98;8.52;;;27.30;66.40;;;;;;5072931;28;20025;-71
2023/04/08 11:25:42;;;;;;;11.75;8.00;;;27.60;66.50;;;;;;5073059;28;20119;-71
2023/04/08 11:28:08;;;;;;;12.23;8.05;;;27.90;65.40;;;;;;5072746;28;20113;-70
2023/04/08 11:30:34;;;;;;;12.35;8.05;;;27.80;65.20;;;;;;5072881;28;20528;-70
2023/04/08 11:33:00;;;;;;;13.55;7.95;;;27.70;65.40;;;;;;5072501;28;20025;-71
2023/04/08 11:35:30;;;;;;;11.88;7.82;;;27.90;63.50;;;;;;5072833;28;20369;-70
2023/04/08 11:37:56;;;;;;;12.40;7.78;;;28.20;63.90;;;;;;5072467;28;20420;-70
2023/04/08 11:40:23;;;;;;;15.73;8.48;;;28.70;63.10;;;;;;5072916;28;20082;-70
2023/04/08 11:42:50;;;;;;;13.60;8.52;;;28.70;63.40;;;;;;5073101;28;20076;-71
2023/04/08 11:45:17;;;;;;;14.00;8.65;;;28.50;62.70;;;;;;5072804;28;20036;-71
2023/04/08 11:47:43;;;;;;;14.23;8.95;;;28.40;63.40;;;;;;5073142;28;20056;-71
2023/04/08 11:50:09;;;;;;;12.98;7.95;;;28.50;64.40;;;;;;5072953;28;20350;-70
2023/04/08 11:52:46;;;;;;;13.57;8.45;;;28.60;62.50;;;;;;5073253;28;20089;-71
2023/04/08 11:55:23;;;;;;;13.57;8.75;;;28.40;63.60;;;;;;5072886;28;20075;-70
2023/04/08 11:57:49;;;;;;;14.45;8.15;;;28.30;62.50;;;;;;5072778;28;20481;-71
2023/04/08 12:00:15;;;;;;;13.43;8.43;;;28.10;62.60;;;;;;5073078;28;20040;-70
2023/04/08 12:02:41;;;;;;;13.45;8.48;;;27.80;63.90;;;;;;5073024;28;20025;-70
2023/04/08 12:05:07;;;;;;;10.65;7.72;;;27.90;64.70;;;;;;5072724;28;20445;-71
2023/04/08 12:07:32;;;;;;;12.93;8.50;;;28.10;61.50;;;;;;5072639;28;20455;-70
2023/04/08 12:09:58;;;;;;;13.82;7.85;;;27.90;62.20;;;;;;5072655;28;20056;-71
2023/04/08 12:12:24;;;;;;;11.43;7.38;;;27.90;62.10;;;;;;5072440;28;20445;-71
2023/04/08 12:14:49;;;;;;;12.93;8.15;;;28.10;61.10;;;;;;5073111;28;20068;-70
2023/04/08 12:17:15;;;;;;;16.52;8.13;;;28.00;60.80;;;;;;5073109;28;20067;-71
2023/04/08 12:19:41;;;;;;;14.90;8.30;;;28.00;60.30;;;;;;5072629;28;20430;-70
2023/04/08 12:22:06;;;;;;;18.30;7.93;;;27.80;59.90;;;;;;5089869;28;20069;-70
2023/04/08 12:24:32;;;;;;;13.75;7.90;;;27.70;59.90;;;;;;5093060;28;20020;-70
2023/04/08 12:26:57;;;;;;;12.95;7.50;;;27.30;60.30;;;;;;5092637;28;20056;-70
2023/04/08 12:29:24;;;;;;;15.98;8.15;;;27.00;62.20;;;;;;5092855;28;20483;-70
2023/04/08 12:31:50;;;;;;;15.05;8.63;;;26.90;61.00;;;;;;5093019;28;20111;-70
2023/04/08 12:34:16;;;;;;;13.25;7.03;;;26.70;61.60;;;;;;5093247;28;20028;-70